Time;durP1;ratioP1;P1;durP2;ratioP2;P2;SDS_P1;SDS_P2;PMS_P1;PMS_P2;Temp;Humidity;BMP_temperature;BMP_pressure;BME280_temperature;BME280_humidity;BME280_pressure;Samples;Min_cycle;Max_cycle;Signal;HPM_P1;HPM_P2
2022/09/08 00:02:06;;;;;;;3.90;2.50;;;27.20;53.70;;;;;;5004225;28;20264;-48
2022/09/08 00:04:33;;;;;;;3.50;2.60;;;27.00;54.50;;;;;;4995280;28;20332;-48
2022/09/08 00:07:00;;;;;;;4.33;3.00;;;26.80;55.00;;;;;;4994261;28;20190;-48
2022/09/08 00:09:25;;;;;;;2.90;2.70;;;26.60;55.60;;;;;;5005775;28;20451;-51
2022/09/08 00:11:51;;;;;;;2.90;2.57;;;26.50;55.80;;;;;;4999818;28;20445;-47
2022/09/08 00:14:17;;;;;;;3.03;2.73;;;26.50;55.90;;;;;;5004415;28;20197;-49
2022/09/08 00:16:43;;;;;;;3.60;3.07;;;26.60;55.70;;;;;;5006585;28;20241;-48
2022/09/08 00:19:08;;;;;;;4.20;2.23;;;26.40;56.00;;;;;;5005370;28;20202;-48
2022/09/08 00:21:34;;;;;;;4.90;3.10;;;26.40;56.30;;;;;;5004771;28;20674;-51
2022/09/08 00:24:00;;;;;;;2.90;2.70;;;26.30;56.50;;;;;;4992540;28;20213;-47
2022/09/08 00:26:25;;;;;;;5.73;3.50;;;26.40;56.70;;;;;;5004211;28;20565;-49
2022/09/08 00:28:52;;;;;;;4.63;2.60;;;26.40;56.70;;;;;;5005217;28;20646;-51
2022/09/08 00:31:17;;;;;;;3.53;3.27;;;26.20;57.20;;;;;;5005417;28;20221;-48
2022/09/08 00:33:44;;;;;;;10.37;3.50;;;26.10;57.90;;;;;;4997833;28;21083;-47
2022/09/08 00:36:17;;;;;;;3.70;3.00;;;26.10;58.20;;;;;;4995722;28;20199;-47
2022/09/08 00:38:49;;;;;;;5.00;3.60;;;26.10;58.50;;;;;;4997370;28;20445;-49
2022/09/08 00:41:14;;;;;;;7.30;3.93;;;25.90;59.10;;;;;;5002688;28;20508;-47
2022/09/08 00:43:43;;;;;;;6.73;3.87;;;25.90;59.30;;;;;;5006062;28;20519;-48
2022/09/08 00:46:09;;;;;;;4.40;3.17;;;25.90;59.30;;;;;;5005174;28;20202;-47
2022/09/08 00:48:41;;;;;;;6.63;4.50;;;26.00;59.30;;;;;;5003625;28;20954;-49
2022/09/08 00:51:07;;;;;;;5.33;4.40;;;26.10;58.90;;;;;;5005397;28;20196;-51
2022/09/08 00:53:37;;;;;;;5.07;3.53;;;26.20;58.60;;;;;;5006776;28;21036;-50
2022/09/08 00:56:05;;;;;;;3.53;3.23;;;26.30;58.50;;;;;;5004308;28;20453;-49
2022/09/08 00:58:33;;;;;;;4.90;3.30;;;26.40;58.30;;;;;;5002596;28;20812;-51
2022/09/08 01:01:00;;;;;;;4.90;3.73;;;26.40;58.10;;;;;;4999841;28;20463;-50
2022/09/08 01:03:26;;;;;;;3.50;3.10;;;26.40;58.10;;;;;;5001937;28;20497;-51
2022/09/08 01:06:00;;;;;;;3.13;2.90;;;26.30;58.20;;;;;;4994959;28;20555;-50
2022/09/08 01:14:17;;;;;;;6.07;3.73;;;26.40;58.70;;;;;;5007986;28;20548;-52
2022/09/08 01:16:46;;;;;;;3.47;3.10;;;26.40;59.10;;;;;;5007426;28;20945;-48
2022/09/08 01:19:24;;;;;;;7.00;3.87;;;26.40;59.20;;;;;;5003827;28;20436;-48
2022/09/08 01:21:50;;;;;;;4.97;3.33;;;26.40;59.00;;;;;;5004764;28;20993;-50
2022/09/08 01:24:35;;;;;;;4.43;3.23;;;26.50;59.00;;;;;;5011170;28;20452;-50
2022/09/08 01:27:09;;;;;;;4.10;3.23;;;26.50;59.00;;;;;;5000294;28;20452;-49
2022/09/08 01:29:36;;;;;;;3.93;3.50;;;26.50;59.00;;;;;;5006101;28;20523;-52
2022/09/08 01:32:04;;;;;;;3.80;3.27;;;26.50;58.90;;;;;;4997764;28;20470;-51
2022/09/08 01:34:41;;;;;;;7.13;3.27;;;26.60;58.90;;;;;;5008489;28;20473;-51
2022/09/08 01:37:07;;;;;;;4.27;3.20;;;26.60;58.80;;;;;;5011591;28;20447;-51
2022/09/08 01:39:32;;;;;;;6.57;2.83;;;26.60;58.70;;;;;;5007137;28;20459;-51
2022/09/08 01:41:59;;;;;;;5.50;3.30;;;26.70;58.70;;;;;;5007233;28;20241;-49
2022/09/08 01:44:25;;;;;;;4.20;3.80;;;26.70;58.60;;;;;;5013261;28;20201;-51
2022/09/08 01:46:51;;;;;;;4.60;3.50;;;26.70;58.60;;;;;;5010063;28;20480;-51
2022/09/08 01:49:16;;;;;;;3.93;3.57;;;26.70;58.70;;;;;;5002074;28;20602;-49
2022/09/08 01:51:42;;;;;;;3.40;3.10;;;26.70;58.80;;;;;;5008432;28;20198;-49
2022/09/08 01:54:08;;;;;;;6.30;3.50;;;26.70;58.90;;;;;;5011521;28;20194;-52
2022/09/08 01:56:35;;;;;;;4.07;3.67;;;26.70;58.80;;;;;;5008861;28;20202;-49
2022/09/08 01:59:01;;;;;;;3.77;3.10;;;26.70;58.90;;;;;;5010236;28;20206;-50
2022/09/08 02:01:27;;;;;;;6.47;3.20;;;26.70;58.90;;;;;;5006102;28;20488;-52
2022/09/08 02:03:52;;;;;;;3.57;3.27;;;26.80;58.80;;;;;;5009323;28;20974;-52
2022/09/08 02:06:18;;;;;;;3.93;3.30;;;26.70;58.80;;;;;;5010214;28;20289;-49
2022/09/08 02:08:48;;;;;;;3.20;2.90;;;26.80;58.80;;;;;;5005824;28;20749;-49
2022/09/08 02:11:14;;;;;;;5.93;3.57;;;26.70;58.80;;;;;;5006257;28;20217;-50
2022/09/08 02:13:39;;;;;;;6.47;2.97;;;26.60;59.10;;;;;;5003245;28;20520;-51
2022/09/08 02:16:06;;;;;;;4.60;3.97;;;26.50;59.20;;;;;;5007001;28;20213;-48
2022/09/08 02:18:33;;;;;;;3.87;3.10;;;26.50;59.20;;;;;;5004919;28;20209;-48
2022/09/08 02:21:16;;;;;;;4.73;3.30;;;26.40;59.10;;;;;;5008533;28;20456;-49
2022/09/08 02:23:45;;;;;;;6.60;3.60;;;26.40;59.10;;;;;;5005029;28;20837;-49
2022/09/08 02:26:23;;;;;;;3.40;3.10;;;26.40;59.20;;;;;;4992544;28;20442;-48
2022/09/08 02:28:53;;;;;;;3.73;3.43;;;26.40;59.40;;;;;;5005611;28;20452;-48
2022/09/08 02:31:19;;;;;;;2.90;2.70;;;26.40;59.40;;;;;;5005070;28;20491;-48
2022/09/08 02:33:45;;;;;;;4.97;3.33;;;26.40;59.50;;;;;;5002049;28;20479;-49
2022/09/08 02:36:11;;;;;;;3.50;3.27;;;26.40;59.40;;;;;;5001634;28;20445;-49
2022/09/08 02:38:37;;;;;;;3.47;3.13;;;26.40;59.40;;;;;;5003579;28;20514;-49
2022/09/08 02:41:04;;;;;;;4.03;3.33;;;26.30;59.50;;;;;;4997128;28;20642;-48
2022/09/08 02:43:30;;;;;;;3.60;3.30;;;26.10;59.50;;;;;;5003165;28;20605;-48
2022/09/08 02:45:56;;;;;;;4.33;2.97;;;25.90;60.40;;;;;;4997900;28;20850;-48
2022/09/08 02:48:22;;;;;;;3.20;3.00;;;25.80;60.90;;;;;;5006494;28;20448;-48
2022/09/08 02:50:47;;;;;;;4.13;3.50;;;25.80;60.90;;;;;;5004052;28;20221;-48
2022/09/08 02:53:13;;;;;;;3.17;2.70;;;25.60;60.40;;;;;;5007033;28;20662;-48
2022/09/08 02:55:40;;;;;;;4.03;2.47;;;25.60;61.00;;;;;;5004311;28;20198;-48
2022/09/08 02:58:07;;;;;;;3.20;2.60;;;25.40;60.70;;;;;;5018999;28;20197;-48
2022/09/08 03:00:34;;;;;;;2.90;2.37;;;24.90;61.80;;;;;;5007090;28;20780;-47
2022/09/08 03:03:00;;;;;;;2.70;2.50;;;24.80;62.80;;;;;;5006493;28;20484;-48
2022/09/08 03:05:26;;;;;;;3.20;2.20;;;24.80;63.00;;;;;;5007641;28;20506;-49
2022/09/08 03:07:52;;;;;;;3.33;3.03;;;24.70;63.00;;;;;;5002705;28;20198;-50
2022/09/08 03:10:23;;;;;;;2.87;2.67;;;24.80;62.70;;;;;;5002119;28;20190;-47
2022/09/08 03:12:51;;;;;;;2.40;2.30;;;25.00;62.50;;;;;;4996565;28;20498;-47
2022/09/08 03:15:17;;;;;;;2.90;2.30;;;24.90;62.90;;;;;;5013053;28;20539;-51
2022/09/08 03:17:42;;;;;;;2.50;2.30;;;25.10;62.50;;;;;;5008665;28;20579;-47
2022/09/08 03:20:09;;;;;;;2.60;2.40;;;25.30;61.80;;;;;;5008936;28;20205;-48
2022/09/08 03:25:36;;;;;;;3.40;2.60;;;25.50;61.10;;;;;;5013207;23;20500;-49
2022/09/08 03:28:05;;;;;;;2.63;2.47;;;25.60;60.60;;;;;;4986250;28;20484;-48
2022/09/08 03:30:31;;;;;;;2.53;2.33;;;25.70;60.30;;;;;;4988382;28;20866;-52
2022/09/08 03:32:57;;;;;;;2.33;2.13;;;25.80;59.90;;;;;;4989589;28;20532;-48
2022/09/08 03:35:22;;;;;;;2.63;2.27;;;25.80;59.80;;;;;;4984723;28;20529;-51
2022/09/08 03:37:48;;;;;;;2.53;2.33;;;25.80;59.20;;;;;;4979869;28;20206;-51
2022/09/08 03:40:16;;;;;;;2.20;2.10;;;25.80;58.80;;;;;;4981963;28;20204;-48
2022/09/08 03:42:43;;;;;;;2.23;2.03;;;25.70;58.60;;;;;;4983694;28;20237;-48
2022/09/08 03:45:12;;;;;;;3.00;2.00;;;25.60;58.70;;;;;;4981319;28;20480;-48
2022/09/08 03:47:38;;;;;;;2.50;1.90;;;25.60;58.80;;;;;;4984114;28;20855;-48
2022/09/08 03:50:04;;;;;;;2.40;2.20;;;25.60;58.90;;;;;;4981319;28;20445;-50
2022/09/08 03:52:30;;;;;;;2.70;1.90;;;25.60;58.60;;;;;;4981260;28;20198;-48
2022/09/08 03:54:57;;;;;;;1.30;1.20;;;25.70;58.40;;;;;;4979679;28;20450;-52
2022/09/08 03:57:26;;;;;;;1.97;1.87;;;25.70;57.70;;;;;;4976643;28;20198;-52
2022/09/08 03:59:53;;;;;;;2.00;1.90;;;25.50;58.40;;;;;;4980006;28;20451;-48
2022/09/08 04:02:20;;;;;;;1.53;1.43;;;25.50;59.00;;;;;;4980786;28;20505;-49
2022/09/08 04:04:51;;;;;;;2.10;1.90;;;25.40;59.00;;;;;;4985217;28;20797;-52
2022/09/08 04:07:18;;;;;;;2.23;1.67;;;25.60;58.90;;;;;;4980332;28;20544;-52
2022/09/08 04:09:44;;;;;;;1.77;1.67;;;25.70;58.10;;;;;;4979712;28;20442;-50
2022/09/08 04:12:10;;;;;;;2.20;1.60;;;25.70;58.20;;;;;;4985943;28;20443;-48
2022/09/08 04:14:37;;;;;;;2.20;1.93;;;25.70;58.00;;;;;;4984651;28;20242;-50
2022/09/08 04:17:03;;;;;;;1.80;1.70;;;25.80;57.90;;;;;;4991262;28;20486;-49
2022/09/08 04:19:28;;;;;;;2.80;1.30;;;25.70;58.30;;;;;;4986206;28;20472;-52
2022/09/08 04:21:54;;;;;;;2.50;1.77;;;25.70;57.90;;;;;;4990131;28;20223;-49
2022/09/08 04:24:20;;;;;;;2.03;1.60;;;25.70;57.90;;;;;;4985906;28;20266;-49
2022/09/08 04:26:46;;;;;;;1.70;1.53;;;25.70;58.20;;;;;;4988866;28;20968;-51
2022/09/08 04:29:13;;;;;;;3.23;1.70;;;25.70;58.30;;;;;;4987008;28;20669;-49
2022/09/08 04:31:38;;;;;;;2.50;1.70;;;25.70;58.30;;;;;;4987512;28;20449;-48
2022/09/08 04:34:05;;;;;;;1.70;1.53;;;25.70;58.20;;;;;;4983084;28;20437;-49
2022/09/08 04:36:30;;;;;;;1.60;1.50;;;25.80;58.20;;;;;;4980063;28;20257;-49
2022/09/08 04:38:58;;;;;;;1.90;1.23;;;25.70;58.00;;;;;;4986440;28;20434;-48
2022/09/08 04:41:25;;;;;;;1.73;1.63;;;25.80;57.60;;;;;;4976659;28;20227;-49
2022/09/08 04:43:51;;;;;;;1.47;1.20;;;25.60;58.30;;;;;;4982629;28;20944;-48
2022/09/08 04:46:18;;;;;;;1.60;1.50;;;25.50;58.10;;;;;;4984704;28;20434;-50
2022/09/08 04:48:45;;;;;;;1.57;1.47;;;25.50;58.40;;;;;;4990406;28;21278;-48
2022/09/08 04:51:16;;;;;;;3.40;1.70;;;25.50;58.90;;;;;;4988094;28;20509;-48
2022/09/08 04:53:43;;;;;;;1.47;1.37;;;25.60;58.40;;;;;;4984774;28;20433;-49
2022/09/08 04:56:09;;;;;;;2.47;1.40;;;25.60;58.40;;;;;;4987015;28;20913;-50
2022/09/08 04:58:37;;;;;;;1.37;1.27;;;25.60;58.40;;;;;;4989005;28;20469;-48
2022/09/08 05:01:08;;;;;;;1.30;1.20;;;25.70;58.20;;;;;;4980934;28;20449;-53
2022/09/08 05:03:34;;;;;;;1.30;1.20;;;25.70;58.10;;;;;;4983470;28;20948;-49
2022/09/08 05:06:11;;;;;;;1.07;0.97;;;25.60;57.40;;;;;;4989279;28;20574;-48
2022/09/08 05:08:37;;;;;;;3.83;1.40;;;25.50;58.20;;;;;;4985409;28;20466;-52
2022/09/08 05:11:04;;;;;;;2.20;1.57;;;25.50;58.30;;;;;;4989502;28;20524;-48
2022/09/08 05:13:31;;;;;;;1.57;1.20;;;25.40;59.60;;;;;;4991659;28;20649;-49
2022/09/08 05:16:03;;;;;;;1.70;1.60;;;25.30;59.30;;;;;;4987503;28;20446;-49
2022/09/08 05:18:29;;;;;;;1.87;1.27;;;25.20;59.90;;;;;;4985972;28;20993;-48
2022/09/08 05:20:55;;;;;;;3.33;1.40;;;25.20;59.60;;;;;;4984086;28;20444;-53
2022/09/08 05:23:21;;;;;;;1.40;1.27;;;25.40;59.00;;;;;;4984834;28;20191;-51
2022/09/08 05:25:55;;;;;;;1.70;1.43;;;25.50;58.30;;;;;;4986861;28;20281;-53
2022/09/08 05:28:21;;;;;;;1.37;1.27;;;25.40;57.90;;;;;;4983257;28;20350;-48
2022/09/08 05:30:47;;;;;;;1.50;1.03;;;25.20;58.30;;;;;;4985005;28;20430;-49
2022/09/08 05:33:12;;;;;;;5.60;1.27;;;25.10;58.60;;;;;;4983478;28;20688;-48
2022/09/08 05:35:38;;;;;;;2.13;1.30;;;25.00;58.70;;;;;;4975873;28;20702;-51
2022/09/08 05:38:03;;;;;;;3.13;1.43;;;24.90;59.20;;;;;;4985044;28;20195;-48
2022/09/08 05:40:29;;;;;;;1.40;1.30;;;24.80;59.20;;;;;;4987692;28;20341;-49
2022/09/08 05:42:54;;;;;;;1.17;1.07;;;24.80;59.40;;;;;;4984042;28;20222;-49
2022/09/08 05:45:20;;;;;;;1.63;1.10;;;24.80;59.50;;;;;;4984107;28;20194;-51
2022/09/08 05:47:46;;;;;;;2.07;0.90;;;24.70;59.70;;;;;;4988453;28;20597;-51
2022/09/08 05:50:11;;;;;;;1.17;1.07;;;24.50;60.30;;;;;;4987819;28;20241;-52
2022/09/08 05:52:37;;;;;;;2.93;1.40;;;24.50;60.60;;;;;;4983722;28;20199;-47
2022/09/08 05:55:02;;;;;;;3.33;1.10;;;24.40;60.80;;;;;;4986093;28;20190;-49
2022/09/08 05:57:28;;;;;;;3.40;1.43;;;24.20;61.10;;;;;;4987878;28;20668;-51
2022/09/08 05:59:54;;;;;;;4.30;1.40;;;24.00;61.80;;;;;;4984499;28;20536;-48
2022/09/08 06:02:19;;;;;;;1.40;1.30;;;23.90;62.40;;;;;;4989374;28;20573;-49
2022/09/08 06:04:45;;;;;;;1.50;1.40;;;23.80;62.80;;;;;;4990291;28;20237;-52
2022/09/08 06:07:10;;;;;;;1.13;1.00;;;23.50;63.70;;;;;;4991757;28;20205;-47
2022/09/08 06:09:36;;;;;;;3.80;1.37;;;23.40;64.60;;;;;;4984636;28;20680;-48
2022/09/08 06:12:02;;;;;;;4.77;1.43;;;23.40;64.90;;;;;;4989224;28;20763;-52
2022/09/08 06:14:28;;;;;;;2.40;1.40;;;23.30;64.90;;;;;;4989887;28;20230;-50
2022/09/08 06:16:53;;;;;;;3.10;1.63;;;23.30;65.40;;;;;;4990512;28;20516;-49
2022/09/08 06:19:19;;;;;;;1.30;1.20;;;23.40;65.10;;;;;;4992340;28;20187;-49
2022/09/08 06:21:45;;;;;;;1.50;1.20;;;23.50;65.10;;;;;;4981787;28;20234;-48
2022/09/08 06:24:13;;;;;;;2.73;1.50;;;23.50;64.90;;;;;;4985020;28;20234;-51
2022/09/08 06:27:16;;;;;;;1.40;1.10;;;23.50;64.30;;;;;;4988960;28;20191;-48
2022/09/08 06:29:59;;;;;;;2.87;1.50;;;23.60;64.60;;;;;;4986903;28;20450;-53
2022/09/08 06:32:45;;;;;;;1.87;1.40;;;23.50;64.30;;;;;;4987957;28;20445;-48
2022/09/08 06:35:23;;;;;;;2.00;1.13;;;23.50;64.00;;;;;;4976825;28;20437;-50
2022/09/08 06:37:59;;;;;;;5.13;1.27;;;23.50;63.80;;;;;;4982625;28;20476;-50
2022/09/08 06:40:48;;;;;;;4.07;1.70;;;23.50;63.50;;;;;;4983947;28;20456;-48
2022/09/08 06:43:31;;;;;;;2.10;1.40;;;23.50;63.40;;;;;;4987828;28;20521;-48
2022/09/08 06:45:59;;;;;;;4.43;1.20;;;23.50;63.20;;;;;;4987312;28;20446;-50
2022/09/08 06:48:36;;;;;;;3.73;1.47;;;23.50;63.00;;;;;;4981160;28;20482;-48
2022/09/08 06:51:31;;;;;;;2.87;1.57;;;23.50;63.30;;;;;;4986539;28;22050;-49
2022/09/08 06:54:08;;;;;;;2.30;1.37;;;23.40;63.20;;;;;;4990844;28;20793;-49
2022/09/08 06:56:52;;;;;;;1.80;1.70;;;23.50;63.50;;;;;;4984401;28;20458;-48
2022/09/08 06:59:26;;;;;;;2.80;1.50;;;23.60;63.20;;;;;;4989721;28;20537;-52
2022/09/08 07:02:18;;;;;;;2.33;1.40;;;23.60;63.30;;;;;;4982613;28;20489;-50
2022/09/08 07:04:58;;;;;;;1.97;1.60;;;23.70;63.50;;;;;;4984179;28;20532;-49
2022/09/08 07:07:43;;;;;;;1.63;1.10;;;23.60;62.80;;;;;;4986552;28;20457;-49
2022/09/08 07:10:27;;;;;;;1.70;1.50;;;23.60;62.40;;;;;;4986887;28;20540;-48
2022/09/08 07:13:12;;;;;;;3.23;1.33;;;23.40;62.00;;;;;;4985766;28;21367;-48
2022/09/08 07:16:12;;;;;;;1.90;1.17;;;23.40;62.20;;;;;;4983354;28;20589;-48
2022/09/08 07:19:02;;;;;;;2.30;1.43;;;23.40;61.60;;;;;;4980270;28;20541;-48
2022/09/08 07:21:27;;;;;;;1.00;1.00;;;23.60;61.40;;;;;;4987358;28;20931;-48
2022/09/08 07:23:57;;;;;;;1.03;0.93;;;23.60;60.80;;;;;;4982323;28;20569;-48
2022/09/08 07:26:34;;;;;;;3.03;1.00;;;23.50;59.80;;;;;;4986893;28;20286;-48
2022/09/08 07:29:11;;;;;;;1.10;1.00;;;23.50;59.80;;;;;;4984420;28;20457;-48
2022/09/08 07:31:44;;;;;;;2.53;1.20;;;23.60;59.70;;;;;;4987663;28;20452;-49
2022/09/08 07:34:22;;;;;;;1.70;1.13;;;23.60;59.70;;;;;;4987369;28;20449;-48
2022/09/08 07:37:21;;;;;;;1.40;1.10;;;23.70;59.70;;;;;;4990979;28;20434;-48
2022/09/08 07:40:05;;;;;;;2.10;1.00;;;23.70;59.80;;;;;;4973482;28;20452;-48
2022/09/08 07:42:31;;;;;;;0.97;0.87;;;23.80;60.00;;;;;;4989459;28;20493;-48
2022/09/08 07:45:00;;;;;;;1.27;0.80;;;23.80;59.70;;;;;;4990074;28;21148;-49
2022/09/08 07:47:42;;;;;;;1.07;0.97;;;23.80;59.10;;;;;;4989973;28;20477;-49
2022/09/08 07:53:37;;;;;;;1.23;0.90;;;23.80;58.90;;;;;;4983709;28;20612;-50
2022/09/08 07:56:40;;;;;;;1.37;1.07;;;23.80;59.00;;;;;;4988443;28;20504;-51
2022/09/08 07:59:22;;;;;;;1.10;0.90;;;23.80;58.20;;;;;;4993255;28;20461;-47
2022/09/08 08:01:56;;;;;;;2.30;1.00;;;23.80;58.00;;;;;;4986346;28;20484;-49
2022/09/08 08:04:50;;;;;;;2.90;1.03;;;23.80;57.60;;;;;;4991104;28;20434;-49
2022/09/08 08:07:23;;;;;;;2.53;1.17;;;23.90;57.90;;;;;;4988532;28;20449;-48
2022/09/08 08:10:08;;;;;;;1.80;0.90;;;24.00;58.20;;;;;;4988000;28;20807;-51
2022/09/08 08:12:54;;;;;;;1.20;1.10;;;24.00;57.10;;;;;;4989570;28;20497;-49
2022/09/08 08:15:45;;;;;;;1.53;0.90;;;24.00;57.20;;;;;;4976482;28;20554;-51
2022/09/08 08:18:27;;;;;;;0.93;0.93;;;24.00;57.40;;;;;;4987459;28;20458;-48
2022/09/08 08:21:03;;;;;;;0.90;0.80;;;24.00;57.20;;;;;;4970778;28;20806;-48
2022/09/08 08:23:35;;;;;;;0.70;0.70;;;24.00;57.00;;;;;;4983722;28;20465;-52
2022/09/08 08:26:21;;;;;;;1.30;1.20;;;24.10;57.40;;;;;;4986620;28;20446;-48
2022/09/08 08:29:09;;;;;;;0.80;0.80;;;24.40;57.80;;;;;;4979883;28;20442;-49
2022/09/08 08:31:38;;;;;;;1.27;1.13;;;24.40;56.40;;;;;;4981442;28;20446;-48
2022/09/08 08:34:21;;;;;;;2.10;1.03;;;24.40;56.60;;;;;;4982259;28;20445;-48
2022/09/08 08:36:49;;;;;;;1.03;0.93;;;24.30;56.20;;;;;;4985231;28;20552;-48
2022/09/08 08:39:19;;;;;;;1.40;0.90;;;24.30;55.90;;;;;;4988201;28;20526;-48
2022/09/08 08:42:12;;;;;;;2.33;1.10;;;24.60;56.20;;;;;;4982473;28;20540;-48
2022/09/08 08:44:55;;;;;;;1.00;0.90;;;24.80;56.10;;;;;;4982560;28;20449;-50
2022/09/08 08:47:47;;;;;;;1.20;0.93;;;25.00;55.10;;;;;;4982457;28;20442;-50
2022/09/08 08:50:48;;;;;;;0.80;0.80;;;25.30;54.70;;;;;;4979936;28;20457;-48
2022/09/08 08:53:31;;;;;;;1.10;1.00;;;25.00;53.10;;;;;;4978738;28;20452;-47
2022/09/08 08:56:06;;;;;;;1.73;1.17;;;25.10;54.10;;;;;;4980192;28;20451;-50
2022/09/08 08:58:50;;;;;;;0.90;0.80;;;24.80;53.40;;;;;;4985042;28;20547;-50
2022/09/08 09:01:15;;;;;;;1.60;1.10;;;24.70;53.60;;;;;;4979172;28;20877;-51
2022/09/08 09:04:06;;;;;;;1.33;0.70;;;24.70;54.20;;;;;;4987401;28;20447;-48
2022/09/08 09:07:05;;;;;;;1.00;0.80;;;24.90;53.60;;;;;;4988384;28;20202;-50
2022/09/08 09:09:39;;;;;;;1.40;0.90;;;24.80;53.40;;;;;;4986781;28;20536;-50
2022/09/08 09:12:30;;;;;;;1.20;0.80;;;24.80;53.90;;;;;;4984824;28;20541;-51
2022/09/08 09:15:40;;;;;;;1.60;0.87;;;25.00;53.40;;;;;;4984955;28;20484;-51
2022/09/08 09:18:18;;;;;;;2.23;1.00;;;24.60;52.40;;;;;;4997714;28;20556;-52
2022/09/08 09:21:15;;;;;;;1.43;0.97;;;24.60;53.20;;;;;;4991306;28;20453;-49
2022/09/08 09:24:12;;;;;;;2.13;1.10;;;24.50;53.10;;;;;;4982990;28;20488;-47
2022/09/08 09:26:46;;;;;;;1.50;0.70;;;24.70;53.40;;;;;;4981032;28;20473;-49
2022/09/08 09:29:24;;;;;;;0.80;0.70;;;24.80;53.80;;;;;;4991065;28;20449;-49
2022/09/08 09:32:30;;;;;;;2.87;1.03;;;24.80;52.70;;;;;;4980312;28;20493;-49
2022/09/08 09:35:14;;;;;;;1.27;1.17;;;24.80;53.00;;;;;;4981495;28;20453;-50
2022/09/08 09:38:04;;;;;;;1.10;0.90;;;25.00;53.40;;;;;;4988049;28;20441;-50
2022/09/08 09:40:44;;;;;;;1.97;0.97;;;25.00;52.80;;;;;;4990097;28;20476;-47
2022/09/08 09:43:22;;;;;;;1.00;0.90;;;25.10;52.80;;;;;;4992308;28;20489;-46
2022/09/08 09:46:09;;;;;;;1.43;0.90;;;24.80;52.70;;;;;;4981233;28;20808;-46
2022/09/08 09:49:05;;;;;;;1.07;0.80;;;24.90;52.90;;;;;;4990521;28;20442;-50
2022/09/08 09:51:34;;;;;;;1.00;0.90;;;24.90;53.00;;;;;;4983281;28;20512;-48
2022/09/08 09:54:20;;;;;;;1.10;0.87;;;24.90;53.20;;;;;;4987202;28;20485;-48
2022/09/08 09:57:12;;;;;;;0.97;0.97;;;24.90;53.30;;;;;;4989859;28;20485;-50
2022/09/08 09:59:59;;;;;;;1.80;1.17;;;25.10;53.50;;;;;;4993072;28;20426;-48
2022/09/08 10:02:54;;;;;;;1.80;1.10;;;25.20;53.50;;;;;;4990841;28;20588;-50
2022/09/08 10:06:06;;;;;;;1.30;1.20;;;25.30;52.80;;;;;;4991014;28;21018;-48
2022/09/08 10:08:38;;;;;;;1.20;1.10;;;25.60;53.20;;;;;;4989084;28;20976;-50
2022/09/08 10:11:44;;;;;;;5.43;4.13;;;25.70;52.50;;;;;;4988668;28;20433;-49
2022/09/08 10:14:28;;;;;;;5.00;4.13;;;25.90;52.00;;;;;;4983923;28;20484;-49
2022/09/08 10:17:24;;;;;;;4.67;1.87;;;26.00;51.10;;;;;;4987169;28;20464;-52
2022/09/08 10:19:58;;;;;;;4.20;1.60;;;26.10;51.10;;;;;;4988509;28;20449;-48
2022/09/08 10:22:47;;;;;;;2.47;2.20;;;26.10;50.80;;;;;;4975655;28;20500;-47
2022/09/08 10:25:38;;;;;;;2.90;1.90;;;26.20;50.70;;;;;;4989349;28;20529;-48
2022/09/08 10:28:26;;;;;;;1.67;1.47;;;26.10;50.30;;;;;;4978347;28;20453;-50
2022/09/08 10:31:27;;;;;;;1.40;1.30;;;25.90;50.90;;;;;;4981435;28;21055;-51
2022/09/08 10:33:56;;;;;;;1.70;1.60;;;26.30;49.80;;;;;;4982995;28;20442;-50
2022/09/08 10:36:46;;;;;;;3.43;3.13;;;26.60;49.50;;;;;;4987124;28;20513;-48
2022/09/08 10:39:24;;;;;;;4.33;2.70;;;26.80;49.80;;;;;;4990304;28;20444;-51
2022/09/08 10:42:34;;;;;;;2.40;1.43;;;26.90;48.60;;;;;;4982606;28;20480;-51
2022/09/08 10:45:19;;;;;;;1.70;1.20;;;26.80;48.00;;;;;;4986982;28;20876;-50
2022/09/08 10:48:23;;;;;;;1.50;1.40;;;26.80;48.50;;;;;;4987512;28;20452;-48
2022/09/08 10:50:51;;;;;;;2.93;1.17;;;26.70;48.10;;;;;;4975577;28;20449;-50
2022/09/08 10:53:33;;;;;;;1.80;1.70;;;26.60;48.10;;;;;;4981932;28;20450;-46
2022/09/08 10:56:15;;;;;;;1.57;1.30;;;26.70;48.40;;;;;;4984745;28;21172;-48
2022/09/08 10:59:00;;;;;;;19.13;16.30;;;26.70;48.50;;;;;;4988636;28;20481;-48
2022/09/08 11:01:55;;;;;;;3.93;2.90;;;26.70;48.90;;;;;;4989621;28;20449;-49
2022/09/08 11:04:48;;;;;;;7.63;6.67;;;26.70;48.00;;;;;;4989979;28;20449;-49
2022/09/08 11:07:32;;;;;;;8.70;7.67;;;26.50;47.90;;;;;;4989217;28;20461;-48
2022/09/08 11:10:35;;;;;;;13.50;11.00;;;26.50;48.60;;;;;;4981572;28;20497;-49
2022/09/08 11:13:12;;;;;;;3.20;2.70;;;26.40;48.70;;;;;;4978643;28;20501;-47
2022/09/08 11:15:52;;;;;;;7.40;5.97;;;26.40;48.20;;;;;;4985057;28;20476;-48
2022/09/08 11:18:36;;;;;;;5.27;3.53;;;26.50;48.10;;;;;;4988393;28;20468;-47
2022/09/08 11:21:17;;;;;;;5.53;5.00;;;26.50;47.80;;;;;;4986052;28;20961;-46
2022/09/08 11:23:55;;;;;;;6.17;4.60;;;26.50;48.50;;;;;;4981171;28;20474;-47
2022/09/08 11:26:40;;;;;;;2.90;2.40;;;26.40;48.60;;;;;;4980298;28;20450;-49
2022/09/08 11:29:16;;;;;;;3.70;2.73;;;26.40;49.40;;;;;;4987769;28;20449;-47
2022/09/08 11:32:32;;;;;;;2.27;1.70;;;26.40;50.80;;;;;;4985069;28;20445;-47
2022/09/08 11:35:23;;;;;;;2.10;1.60;;;26.50;51.40;;;;;;5022537;28;20571;-47
2022/09/08 11:37:57;;;;;;;1.80;1.47;;;26.60;51.20;;;;;;5024339;28;20466;-47
2022/09/08 11:40:51;;;;;;;2.00;1.80;;;26.60;50.60;;;;;;4996455;28;20461;-47
2022/09/08 11:43:23;;;;;;;1.73;1.40;;;26.80;50.20;;;;;;4986013;28;21395;-48
2022/09/08 11:46:20;;;;;;;1.60;1.03;;;26.70;49.90;;;;;;4975778;28;20458;-49
2022/09/08 11:49:27;;;;;;;1.63;1.00;;;26.70;50.20;;;;;;4989572;28;20457;-48
2022/09/08 11:52:13;;;;;;;1.40;1.10;;;26.80;49.90;;;;;;4987585;28;20492;-47
2022/09/08 11:54:54;;;;;;;1.20;0.80;;;27.10;49.90;;;;;;4983944;28;20995;-47
2022/09/08 11:57:49;;;;;;;6.70;1.07;;;27.20;47.90;;;;;;4987464;28;20441;-47
2022/09/08 12:00:55;;;;;;;4.33;1.03;;;27.30;47.90;;;;;;4988288;28;20465;-47
2022/09/08 12:03:42;;;;;;;1.73;0.90;;;27.20;46.30;;;;;;4981352;28;20600;-47
2022/09/08 12:06:41;;;;;;;1.50;0.83;;;27.10;46.70;;;;;;4988128;28;20442;-47
2022/09/08 12:09:33;;;;;;;4.23;0.80;;;27.20;46.10;;;;;;4987832;28;20449;-47
2022/09/08 12:12:36;;;;;;;2.90;1.00;;;27.40;46.20;;;;;;4984194;28;20477;-50
2022/09/08 12:15:32;;;;;;;1.83;1.10;;;27.40;45.40;;;;;;4988356;28;20452;-48
2022/09/08 12:18:10;;;;;;;2.53;1.10;;;27.50;45.80;;;;;;4971925;28;20438;-47
2022/09/08 12:21:11;;;;;;;1.93;0.80;;;27.40;44.20;;;;;;4978306;28;20453;-48
2022/09/08 12:24:11;;;;;;;2.37;1.23;;;27.30;44.40;;;;;;4974429;28;20527;-50
2022/09/08 12:27:18;;;;;;;2.43;1.10;;;27.30;44.60;;;;;;4986323;28;20498;-48
2022/09/08 12:30:12;;;;;;;2.43;1.00;;;27.10;44.50;;;;;;4982358;28;20506;-51
2022/09/08 12:32:47;;;;;;;1.13;0.83;;;27.10;44.90;;;;;;4988928;28;20604;-49
2022/09/08 12:35:27;;;;;;;2.40;1.23;;;27.00;45.40;;;;;;4993865;28;20445;-48
2022/09/08 12:38:25;;;;;;;2.50;1.20;;;27.10;46.00;;;;;;4985809;28;20541;-51
2022/09/08 12:41:26;;;;;;;1.63;1.17;;;27.10;44.80;;;;;;5001130;28;20449;-51
2022/09/08 12:44:33;;;;;;;1.87;1.10;;;27.10;45.20;;;;;;4986210;28;20446;-50
2022/09/08 12:47:05;;;;;;;2.43;1.13;;;27.10;46.00;;;;;;4982802;28;20477;-47
2022/09/08 12:49:58;;;;;;;4.00;1.30;;;26.90;45.30;;;;;;4988408;28;20565;-49
2022/09/08 12:52:38;;;;;;;3.17;1.50;;;27.00;45.40;;;;;;4987261;28;20573;-51
2022/09/08 12:55:24;;;;;;;1.10;1.00;;;27.20;45.20;;;;;;4985388;28;20515;-47
2022/09/08 12:57:55;;;;;;;2.10;1.00;;;27.00;46.30;;;;;;4990116;28;20449;-46
2022/09/08 13:00:27;;;;;;;3.17;1.43;;;27.10;45.90;;;;;;4991259;28;20450;-47
2022/09/08 13:03:11;;;;;;;1.47;0.97;;;26.80;46.50;;;;;;4975503;28;20497;-50
2022/09/08 13:06:05;;;;;;;2.37;1.17;;;27.00;47.10;;;;;;4990865;28;20458;-50
2022/09/08 13:08:42;;;;;;;1.80;0.97;;;27.20;46.30;;;;;;4993589;28;21020;-50
2022/09/08 13:11:34;;;;;;;1.10;1.00;;;27.20;45.70;;;;;;4984751;28;20517;-46
2022/09/08 13:14:11;;;;;;;1.50;0.90;;;27.40;45.60;;;;;;4985941;28;20458;-51
2022/09/08 13:17:06;;;;;;;2.00;1.23;;;27.50;44.10;;;;;;4985107;28;20441;-46
2022/09/08 13:20:01;;;;;;;2.97;1.00;;;27.50;43.10;;;;;;4993449;28;20462;-48
2022/09/08 13:22:49;;;;;;;1.07;0.97;;;27.70;43.60;;;;;;4992589;28;20493;-50
2022/09/08 13:25:26;;;;;;;1.30;1.20;;;27.80;43.30;;;;;;4986390;28;20470;-47
2022/09/08 13:28:13;;;;;;;1.97;1.13;;;27.50;43.40;;;;;;4988459;28;20955;-47
2022/09/08 13:30:44;;;;;;;1.53;1.10;;;27.50;43.70;;;;;;4992145;28;20940;-46
2022/09/08 13:33:33;;;;;;;1.53;0.80;;;27.60;43.60;;;;;;4990033;28;20481;-50
2022/09/08 13:36:08;;;;;;;1.90;0.80;;;27.70;41.00;;;;;;5008986;28;20467;-46
2022/09/08 13:38:58;;;;;;;1.00;0.90;;;27.60;41.20;;;;;;4991380;28;20945;-47
2022/09/08 13:41:38;;;;;;;1.43;1.20;;;27.80;40.60;;;;;;4982160;28;20553;-49
2022/09/08 13:44:27;;;;;;;2.03;1.20;;;27.80;40.90;;;;;;4990797;28;20980;-49
2022/09/08 13:47:19;;;;;;;1.53;0.90;;;28.00;41.40;;;;;;4992304;28;20437;-46